createdAt,value
2022-12-28T00:01:19.625Z,101372.31
2022-12-28T00:03:46.796Z,101386.81
2022-12-28T00:06:14.230Z,101452.25
2022-12-28T00:08:41.058Z,101401.59
2022-12-28T00:11:20.544Z,101420.84
2022-12-28T00:13:56.043Z,101430.28
2022-12-28T00:16:38.574Z,101425.72
2022-12-28T00:19:10.214Z,101406.41
2022-12-28T00:21:36.959Z,101348.91
2022-12-28T00:24:03.895Z,101375.22
2022-12-28T00:26:33.542Z,101352.19
2022-12-28T00:29:04.747Z,101352.44
2022-12-28T00:31:35.023Z,101385.63
2022-12-28T00:34:02.824Z,101378.78
2022-12-28T00:37:08.789Z,101355.75
2022-12-28T00:39:15.889Z,101357.88
2022-12-28T00:41:42.402Z,101372.22
2022-12-28T00:44:10.111Z,101373.50
2022-12-28T00:46:36.693Z,101352.88
2022-12-28T00:49:03.623Z,101247.78
2022-12-28T00:51:30.206Z,101199.50
2022-12-28T00:53:56.988Z,101324.53
2022-12-28T00:56:23.671Z,101332.09
2022-12-28T00:58:55.058Z,101349.81
2022-12-28T01:01:23.423Z,101263.56
2022-12-28T01:03:50.565Z,101305.88
2022-12-28T01:06:19.691Z,101348.63
2022-12-28T01:08:46.629Z,101316.22
2022-12-28T01:11:20.691Z,101353.16
2022-12-28T01:13:48.350Z,101335.69
2022-12-28T01:16:16.378Z,101332.31
2022-12-28T01:18:44.292Z,101339.44
2022-12-28T01:21:13.184Z,101321.75
2022-12-28T01:23:44.311Z,101240.16
2022-12-28T01:26:11.252Z,101302.13
2022-12-28T01:28:38.801Z,101220.63
2022-12-28T01:31:07.581Z,101237.09
2022-12-28T01:33:34.122Z,101208.81
2022-12-28T01:36:06.331Z,101212.41
2022-12-28T01:38:32.972Z,101175.13
2022-12-28T01:40:59.592Z,101267.31
2022-12-28T01:43:44.508Z,101280.28
2022-12-28T01:46:22.654Z,101232.06
2022-12-28T01:48:58.608Z,101270.88
2022-12-28T01:51:28.445Z,101237.72
2022-12-28T01:53:59.382Z,101216.06
2022-12-28T01:56:27.496Z,101231.94
2022-12-28T01:58:55.822Z,101174.47
2022-12-28T02:01:22.751Z,101207.00
2022-12-28T02:03:49.374Z,101128.50
2022-12-28T02:06:16.551Z,101217.22
2022-12-28T02:08:53.549Z,101227.34
2022-12-28T02:11:21.404Z,101222.84
2022-12-28T02:13:50.383Z,101120.03
2022-12-28T02:16:18.840Z,101164.22
2022-12-28T02:18:47.134Z,101204.81
2022-12-28T02:21:41.413Z,101190.75
2022-12-28T02:24:23.277Z,101189.03
2022-12-28T02:27:02.687Z,101179.47
2022-12-28T02:30:00.214Z,101173.19
2022-12-28T02:32:59.716Z,101140.19
2022-12-28T02:35:44.029Z,101133.00
2022-12-28T02:38:35.131Z,101149.47
2022-12-28T02:41:08.558Z,101054.38
2022-12-28T02:43:36.073Z,101125.31
2022-12-28T02:46:39.958Z,101117.25
2022-12-28T02:49:57.351Z,101154.75
2022-12-28T02:52:26.526Z,101139.28
2022-12-28T02:55:20.634Z,101134.00
2022-12-28T02:58:05.474Z,101132.03
2022-12-28T03:01:12.938Z,101122.78
2022-12-28T03:03:56.750Z,101107.44
2022-12-28T03:06:59.889Z,101079.56
2022-12-28T03:09:33.592Z,101107.22
2022-12-28T03:12:12.534Z,101113.72
2022-12-28T03:14:54.346Z,101098.28
2022-12-28T03:17:44.622Z,101109.06
2022-12-28T03:20:35.037Z,101091.03
2022-12-28T03:23:25.060Z,101097.59
2022-12-28T03:26:12.363Z,100988.34
2022-12-28T03:29:03.264Z,101054.41
2022-12-28T03:31:32.806Z,101004.47
2022-12-28T03:34:09.447Z,101065.31
2022-12-28T03:37:00.697Z,101090.50
2022-12-28T03:39:34.220Z,101089.72
2022-12-28T03:42:24.639Z,101091.47
2022-12-28T03:44:57.200Z,100994.03
2022-12-28T03:47:26.491Z,100967.06
2022-12-28T03:49:53.147Z,101046.34
2022-12-28T03:52:20.216Z,101040.78
2022-12-28T03:54:46.912Z,101046.25
2022-12-28T03:57:16.922Z,101062.56
2022-12-28T03:59:45.199Z,101026.88
2022-12-28T04:02:12.361Z,101058.31
2022-12-28T04:04:40.383Z,100993.78
2022-12-28T04:07:06.963Z,101065.25
2022-12-28T04:09:34.094Z,101051.72
2022-12-28T04:12:00.957Z,101033.28
2022-12-28T04:14:47.480Z,101021.91
2022-12-28T04:17:14.121Z,101022.09
2022-12-28T04:19:42.392Z,101014.38
2022-12-28T04:22:09.050Z,101034.31
2022-12-28T04:24:36.408Z,101026.16
2022-12-28T04:27:02.994Z,101017.50
2022-12-28T04:29:29.607Z,101039.13
2022-12-28T04:31:59.910Z,101014.41
2022-12-28T04:34:26.589Z,101032.97
2022-12-28T04:36:58.421Z,100955.94
2022-12-28T04:39:25.059Z,101029.53
2022-12-28T04:41:51.581Z,101027.34
2022-12-28T04:44:18.148Z,101029.84
2022-12-28T04:46:44.704Z,100998.59
2022-12-28T04:49:11.365Z,100921.69
2022-12-28T04:51:38.002Z,101033.66
2022-12-28T04:54:04.711Z,101005.34
2022-12-28T04:56:31.541Z,100918.69
2022-12-28T04:59:00.938Z,100990.41
2022-12-28T05:01:28.060Z,100972.38
2022-12-28T05:03:59.452Z,100904.38
2022-12-28T05:06:27.618Z,100907.03
2022-12-28T05:08:55.618Z,100971.38
2022-12-28T05:11:25.039Z,101004.47
2022-12-28T05:13:52.263Z,100913.34
2022-12-28T05:16:21.523Z,100929.28
2022-12-28T05:18:48.229Z,100925.69
2022-12-28T05:21:18.472Z,100936.50
2022-12-28T05:23:45.368Z,100973.03
2022-12-28T05:26:15.170Z,100989.97
2022-12-28T05:28:42.581Z,101014.16
2022-12-28T05:31:13.645Z,100910.34
2022-12-28T05:33:40.932Z,100989.09
2022-12-28T05:36:17.040Z,100991.91
2022-12-28T05:38:44.069Z,100983.91
2022-12-28T05:41:24.472Z,100978.50
2022-12-28T05:43:51.431Z,100981.50
2022-12-28T05:46:27.184Z,100961.91
2022-12-28T05:48:56.617Z,100979.75
2022-12-28T05:51:26.112Z,100997.72
2022-12-28T05:53:53.030Z,100978.13
2022-12-28T05:56:22.139Z,100991.56
2022-12-28T05:58:55.059Z,101008.38
2022-12-28T06:01:24.105Z,100895.00
2022-12-28T06:03:59.332Z,100877.22
2022-12-28T06:06:26.909Z,100956.06
2022-12-28T06:08:53.513Z,100982.13
2022-12-28T06:11:22.494Z,100960.84
2022-12-28T06:13:49.511Z,100973.28
2022-12-28T06:16:21.980Z,100858.91
2022-12-28T06:18:49.064Z,100868.69
2022-12-28T06:21:19.580Z,100960.84
2022-12-28T06:23:47.054Z,100816.16
2022-12-28T06:26:16.370Z,100962.03
2022-12-28T06:28:43.725Z,100962.03
2022-12-28T06:31:15.911Z,100924.66
2022-12-28T06:33:42.886Z,100908.66
2022-12-28T06:36:19.660Z,100956.84
2022-12-28T06:38:48.293Z,100972.00
2022-12-28T06:41:16.070Z,100875.66
2022-12-28T06:43:43.721Z,100929.59
2022-12-28T06:46:11.275Z,100868.16
2022-12-28T06:48:38.287Z,100951.34
2022-12-28T06:51:14.441Z,100947.69
2022-12-28T06:53:41.907Z,100841.53
2022-12-28T06:56:11.273Z,100968.25
2022-12-28T06:58:38.135Z,100959.59
2022-12-28T07:01:10.271Z,100865.81
2022-12-28T07:03:36.947Z,100959.72
2022-12-28T07:06:04.741Z,100930.31
2022-12-28T07:08:32.142Z,100844.50
2022-12-28T07:11:11.101Z,100861.50
2022-12-28T07:13:37.879Z,100952.00
2022-12-28T07:16:06.613Z,100917.22
2022-12-28T07:18:34.014Z,100880.50
2022-12-28T07:21:03.431Z,100927.06
2022-12-28T07:23:31.379Z,100936.06
2022-12-28T07:26:05.911Z,100877.06
2022-12-28T07:28:32.416Z,100862.69
2022-12-28T07:30:59.108Z,100935.22
2022-12-28T07:33:25.599Z,100939.56
2022-12-28T07:35:52.112Z,100953.13
2022-12-28T07:38:21.521Z,100942.50
2022-12-28T07:40:48.403Z,100938.06
2022-12-28T07:43:14.956Z,100938.03
2022-12-28T07:45:41.481Z,100938.06
2022-12-28T07:48:08.054Z,100923.88
2022-12-28T07:50:37.968Z,100949.81
2022-12-28T07:53:04.788Z,100856.78
2022-12-28T07:55:32.021Z,100946.94
2022-12-28T07:57:58.637Z,100937.13
2022-12-28T08:00:26.311Z,100913.09
2022-12-28T08:02:56.129Z,100937.00
2022-12-28T08:05:22.644Z,100870.13
2022-12-28T08:07:49.069Z,100935.31
2022-12-28T08:10:15.708Z,100932.63
2022-12-28T08:12:42.185Z,100951.47
2022-12-28T08:15:09.251Z,100846.06
2022-12-28T08:17:37.002Z,100938.94
2022-12-28T08:20:03.805Z,100926.53
2022-12-28T08:22:30.307Z,100854.97
2022-12-28T08:24:56.738Z,100930.88
2022-12-28T08:27:23.190Z,100932.69
2022-12-28T08:29:49.712Z,100893.34
2022-12-28T08:32:16.255Z,100925.59
2022-12-28T08:34:42.737Z,100925.38
2022-12-28T08:37:09.287Z,100939.63
2022-12-28T08:39:35.836Z,100912.97
2022-12-28T08:42:03.696Z,100845.03
2022-12-28T08:44:30.168Z,100935.16
2022-12-28T08:46:57.992Z,100852.13
2022-12-28T08:49:24.564Z,100932.63
2022-12-28T08:51:51.081Z,100936.25
2022-12-28T08:54:17.553Z,100867.38
2022-12-28T08:56:45.674Z,100860.19
2022-12-28T08:59:17.795Z,100944.25
2022-12-28T09:01:45.377Z,100874.44
2022-12-28T09:04:22.274Z,100845.97
2022-12-28T09:06:49.937Z,100910.28
2022-12-28T09:09:19.195Z,100871.84
2022-12-28T09:11:46.726Z,100892.22
2022-12-28T09:14:22.815Z,100927.19
2022-12-28T09:16:51.378Z,100942.50
2022-12-28T09:19:18.118Z,100857.69
2022-12-28T09:21:46.199Z,100814.69
2022-12-28T09:24:13.248Z,100940.66
2022-12-28T09:26:40.151Z,100876.47
2022-12-28T09:29:08.921Z,100946.34
2022-12-28T09:31:37.267Z,100942.88
2022-12-28T09:34:38.490Z,100946.31
2022-12-28T09:36:55.117Z,100944.59
2022-12-28T09:39:24.469Z,100950.88
2022-12-28T09:42:06.020Z,100907.97
2022-12-28T09:45:00.680Z,100934.03
2022-12-28T09:47:42.101Z,100942.94
2022-12-28T09:50:29.936Z,100903.63
2022-12-28T09:53:19.752Z,100931.34
2022-12-28T09:56:03.533Z,100922.53
2022-12-28T09:58:32.266Z,100856.41
2022-12-28T10:01:01.368Z,100925.09
2022-12-28T10:03:35.639Z,100930.63
2022-12-28T10:06:03.970Z,100932.41
2022-12-28T10:08:35.057Z,100916.44
2022-12-28T10:11:02.488Z,100924.50
2022-12-28T10:13:54.010Z,100912.13
2022-12-28T10:16:23.523Z,100855.78
2022-12-28T10:18:50.653Z,100860.13
2022-12-28T10:21:20.274Z,100830.06
2022-12-28T10:24:29.847Z,100905.16
2022-12-28T10:26:44.102Z,100908.72
2022-12-28T10:29:18.931Z,100916.00
2022-12-28T10:31:57.047Z,100910.75
2022-12-28T10:34:24.495Z,100886.75
2022-12-28T10:36:53.042Z,100819.94
2022-12-28T10:39:28.998Z,100901.16
2022-12-28T10:41:58.198Z,100892.19
2022-12-28T10:44:39.399Z,100903.00
2022-12-28T10:47:18.165Z,100898.53
2022-12-28T10:50:10.113Z,100873.63
2022-12-28T10:52:36.869Z,100898.66
2022-12-28T10:55:08.239Z,100891.56
2022-12-28T10:57:37.925Z,100884.41
2022-12-28T11:00:23.547Z,100822.81
2022-12-28T11:02:50.151Z,100796.91
2022-12-28T11:05:24.819Z,100839.72
2022-12-28T11:08:05.650Z,100795.25
2022-12-28T11:10:32.983Z,100877.31
2022-12-28T11:13:01.315Z,100872.03
2022-12-28T11:15:30.630Z,100867.50
2022-12-28T11:18:00.388Z,100869.41
2022-12-28T11:20:36.280Z,100858.63
2022-12-28T11:23:06.823Z,100780.16
2022-12-28T11:25:36.133Z,100800.66
2022-12-28T11:28:13.720Z,100813.19
2022-12-28T11:30:40.244Z,100846.25
2022-12-28T11:33:10.008Z,100835.56
2022-12-28T11:35:40.211Z,100782.78
2022-12-28T11:38:11.035Z,100851.56
2022-12-28T11:40:43.540Z,100850.69
2022-12-28T11:43:28.673Z,100835.66
2022-12-28T11:45:56.159Z,100765.22
2022-12-28T11:48:41.339Z,100825.97
2022-12-28T11:51:17.537Z,100826.81
2022-12-28T11:53:44.366Z,100822.50
2022-12-28T11:56:16.104Z,100831.34
2022-12-28T11:58:42.597Z,100829.72
2022-12-28T12:01:30.013Z,100827.00
2022-12-28T12:03:56.574Z,100822.63
2022-12-28T12:06:52.517Z,100818.06
2022-12-28T12:09:22.019Z,100753.13
2022-12-28T12:12:00.075Z,100749.66
2022-12-28T12:14:41.080Z,100805.81
2022-12-28T12:17:14.620Z,100796.03
2022-12-28T12:19:47.312Z,100763.78
2022-12-28T12:22:16.213Z,100799.50
2022-12-28T12:24:56.459Z,100779.00
2022-12-28T12:27:25.989Z,100791.56
2022-12-28T12:30:13.261Z,100727.31
2022-12-28T12:32:46.427Z,100720.13
2022-12-28T12:35:19.793Z,100778.25
2022-12-28T12:37:50.909Z,100774.63
2022-12-28T12:40:32.706Z,100780.00
2022-12-28T12:43:24.393Z,100763.97
2022-12-28T12:46:05.129Z,100741.97
2022-12-28T12:49:07.516Z,100765.25
2022-12-28T12:51:50.610Z,100759.09
2022-12-28T12:54:17.054Z,100763.56
2022-12-28T12:56:46.580Z,100749.50
2022-12-28T12:59:27.808Z,100743.34
2022-12-28T13:02:17.399Z,100645.41
2022-12-28T13:04:47.328Z,100722.25
2022-12-28T13:07:19.947Z,100700.91
2022-12-28T13:09:47.109Z,100704.59
2022-12-28T13:12:18.703Z,100647.63
2022-12-28T13:14:47.643Z,100692.31
2022-12-28T13:17:19.692Z,100697.69
2022-12-28T13:19:46.660Z,100696.81
2022-12-28T13:22:27.814Z,100685.34
2022-12-28T13:24:54.471Z,100676.47
2022-12-28T13:27:22.005Z,100669.44
2022-12-28T13:29:53.346Z,100678.38
2022-12-28T13:32:38.402Z,100610.69
2022-12-28T13:35:27.231Z,100655.34
2022-12-28T13:38:14.807Z,100634.91
2022-12-28T13:40:50.575Z,100647.44
2022-12-28T13:43:54.739Z,100652.72
2022-12-28T13:46:22.645Z,100641.25
2022-12-28T13:48:53.219Z,100598.56
2022-12-28T13:51:21.475Z,100622.59
2022-12-28T13:53:54.276Z,100633.25
2022-12-28T13:56:22.336Z,100623.56
2022-12-28T13:58:54.271Z,100621.81
2022-12-28T14:01:29.757Z,100619.16
2022-12-28T14:04:33.621Z,100531.06
2022-12-28T14:06:51.031Z,100606.69
2022-12-28T14:09:20.174Z,100604.03
2022-12-28T14:11:47.998Z,100582.78
2022-12-28T14:14:15.762Z,100601.38
2022-12-28T14:16:42.702Z,100585.41
2022-12-28T14:19:09.907Z,100565.94
2022-12-28T14:21:42.332Z,100567.81
2022-12-28T14:24:12.391Z,100569.63
2022-12-28T14:26:46.295Z,100552.81
2022-12-28T14:29:24.068Z,100472.75
2022-12-28T14:31:56.600Z,100474.47
2022-12-28T14:34:28.165Z,100538.59
2022-12-28T14:36:56.412Z,100518.25
2022-12-28T14:39:29.118Z,100537.91
2022-12-28T14:41:55.760Z,100531.72
2022-12-28T14:44:31.116Z,100508.69
2022-12-28T14:46:58.174Z,100453.59
2022-12-28T14:49:30.659Z,100520.38
2022-12-28T14:52:17.119Z,100524.84
2022-12-28T14:54:45.307Z,100503.59
2022-12-28T14:57:40.061Z,100520.41
2022-12-28T15:00:25.770Z,100420.81
2022-12-28T15:02:53.710Z,100515.91
2022-12-28T15:05:42.263Z,100514.97
2022-12-28T15:08:09.840Z,100428.84
2022-12-28T15:10:47.582Z,100498.09
2022-12-28T15:13:14.546Z,100507.00
2022-12-28T15:15:41.116Z,100472.38
2022-12-28T15:18:07.694Z,100480.44
2022-12-28T15:20:36.583Z,100477.75
2022-12-28T15:23:03.251Z,100383.53
2022-12-28T15:25:33.181Z,100455.56
2022-12-28T15:27:59.812Z,100459.19
2022-12-28T15:30:29.170Z,100425.34
2022-12-28T15:32:56.386Z,100386.31
2022-12-28T15:35:22.984Z,100450.25
2022-12-28T15:37:49.584Z,100442.34
2022-12-28T15:40:16.127Z,100373.97
2022-12-28T15:42:46.374Z,100340.19
2022-12-28T15:45:14.127Z,100350.94
2022-12-28T15:47:40.833Z,100326.94
2022-12-28T15:50:07.696Z,100370.47
2022-12-28T15:52:34.541Z,100406.91
2022-12-28T15:55:01.134Z,100403.38
2022-12-28T15:57:27.733Z,100407.78
2022-12-28T15:59:54.969Z,100367.88
2022-12-28T16:02:22.328Z,100410.50
2022-12-28T16:04:49.117Z,100286.19
2022-12-28T16:07:16.195Z,100394.50
2022-12-28T16:09:42.691Z,100390.94
2022-12-28T16:12:09.252Z,100347.38
2022-12-28T16:14:35.835Z,100354.56
2022-12-28T16:17:02.379Z,100283.47
2022-12-28T16:19:29.021Z,100354.56
2022-12-28T16:21:55.487Z,100366.88
2022-12-28T16:24:22.323Z,100374.81
2022-12-28T16:26:48.923Z,100269.00
2022-12-28T16:29:15.407Z,100332.88
2022-12-28T16:31:42.017Z,100369.25
2022-12-28T16:34:15.179Z,100367.44
2022-12-28T16:36:44.650Z,100362.97
2022-12-28T16:39:13.509Z,100353.16
2022-12-28T16:41:40.442Z,100362.03
2022-12-28T16:44:12.490Z,100278.50
2022-12-28T16:46:39.003Z,100331.81
2022-12-28T16:49:05.597Z,100251.81
2022-12-28T16:51:32.118Z,100323.81
2022-12-28T16:53:58.883Z,100335.31
2022-12-28T16:56:25.440Z,100327.38
2022-12-28T16:58:56.425Z,100334.44
2022-12-28T17:01:23.407Z,100309.63
2022-12-28T17:03:50.675Z,100314.84
2022-12-28T17:06:20.203Z,100286.47
2022-12-28T17:08:46.767Z,100305.13
2022-12-28T17:11:13.763Z,100230.47
2022-12-28T17:13:40.652Z,100278.47
2022-12-28T17:16:08.726Z,100242.91
2022-12-28T17:18:35.850Z,100247.44
2022-12-28T17:21:07.084Z,100272.34
2022-12-28T17:23:33.937Z,100241.28
2022-12-28T17:26:00.490Z,100276.88
2022-12-28T17:28:27.091Z,100264.44
2022-12-28T17:31:04.611Z,100261.78
2022-12-28T17:33:37.126Z,100207.66
2022-12-28T17:36:06.034Z,100251.19
2022-12-28T17:38:32.593Z,100242.25
2022-12-28T17:40:59.055Z,100251.22
2022-12-28T17:43:25.638Z,100243.19
2022-12-28T17:45:52.185Z,100244.13
2022-12-28T17:48:20.205Z,100237.00
2022-12-28T17:50:47.083Z,100151.84
2022-12-28T17:53:13.737Z,100209.59
2022-12-28T17:55:40.275Z,100215.84
2022-12-28T17:58:06.807Z,100235.31
2022-12-28T18:00:33.373Z,100217.72
2022-12-28T18:03:00.912Z,100175.25
2022-12-28T18:05:27.692Z,100200.00
2022-12-28T18:07:54.159Z,100152.06
2022-12-28T18:10:22.439Z,100178.63
2022-12-28T18:12:49.914Z,100184.03
2022-12-28T18:15:16.597Z,100114.88
2022-12-28T18:17:43.214Z,100157.44
2022-12-28T18:20:10.084Z,100180.50
2022-12-28T18:22:36.633Z,100175.22
2022-12-28T18:25:03.397Z,100167.31
2022-12-28T18:27:29.903Z,100170.00
2022-12-28T18:29:56.432Z,100169.97
2022-12-28T18:32:23.918Z,100118.50
2022-12-28T18:34:50.414Z,100060.06
2022-12-28T18:37:16.946Z,100148.75
2022-12-28T18:39:43.446Z,100145.16
2022-12-28T18:42:09.982Z,100143.34
2022-12-28T18:44:36.694Z,100119.50
2022-12-28T18:47:03.229Z,100147.91
2022-12-28T18:49:29.702Z,100145.22
2022-12-28T18:51:56.459Z,100148.78
2022-12-28T18:54:23.115Z,100142.59
2022-12-28T18:56:49.663Z,100140.81
2022-12-28T18:59:16.153Z,100039.69
2022-12-28T19:04:29.935Z,100151.41
2022-12-28T19:06:56.536Z,100143.44
2022-12-28T19:09:23.058Z,100120.44
2022-12-28T19:11:49.581Z,100129.38
2022-12-28T19:14:16.210Z,100134.69
2022-12-28T19:16:42.977Z,100084.13
2022-12-28T19:19:09.599Z,100095.66
2022-12-28T19:21:38.216Z,100133.81
2022-12-28T19:24:18.865Z,100131.16
2022-12-28T19:26:46.686Z,100039.00
2022-12-28T19:29:15.290Z,100122.38
2022-12-28T19:31:42.301Z,100112.66
2022-12-28T19:34:09.086Z,100097.63
2022-12-28T19:36:35.588Z,100104.69
2022-12-28T19:39:02.031Z,100106.53
2022-12-28T19:41:28.549Z,100012.63
2022-12-28T19:43:55.159Z,100098.63
2022-12-28T19:46:30.425Z,100080.03
2022-12-28T19:48:58.370Z,100103.09
2022-12-28T19:51:30.834Z,100104.00
2022-12-28T19:53:59.037Z,100098.72
2022-12-28T19:56:25.746Z,100018.16
2022-12-28T19:58:54.430Z,100087.25
2022-12-28T20:01:25.820Z,100048.31
2022-12-28T20:03:54.193Z,100049.22
2022-12-28T20:06:23.396Z,99949.13
2022-12-28T20:08:52.198Z,99997.91
2022-12-28T20:11:19.803Z,99987.28
2022-12-28T20:13:54.563Z,99999.69
2022-12-28T20:16:21.750Z,100031.53
2022-12-28T20:18:49.748Z,100086.53
2022-12-28T20:21:20.098Z,100075.91
2022-12-28T20:23:48.520Z,100074.19
2022-12-28T20:26:15.659Z,100007.75
2022-12-28T20:28:42.236Z,100063.63
2022-12-28T20:31:12.149Z,100076.03
2022-12-28T20:33:38.855Z,100043.28
2022-12-28T20:36:08.927Z,100080.47
2022-12-28T20:38:35.467Z,100001.63
2022-12-28T20:41:31.635Z,100082.25
2022-12-28T20:44:04.796Z,100067.22
2022-12-28T20:46:31.585Z,100060.13
2022-12-28T20:48:59.031Z,100061.91
2022-12-28T20:51:25.925Z,99993.78
2022-12-28T20:53:52.422Z,100032.72
2022-12-28T20:56:19.155Z,100045.13
2022-12-28T20:58:45.845Z,100063.72
2022-12-28T21:01:15.135Z,100046.91
2022-12-28T21:03:42.453Z,100079.66
2022-12-28T21:06:09.373Z,100060.19
2022-12-28T21:08:36.155Z,100060.19
2022-12-28T21:11:03.273Z,100052.25
2022-12-28T21:13:29.811Z,99985.84
2022-12-28T21:15:56.494Z,100062.88
2022-12-28T21:18:23.307Z,99992.03
2022-12-28T21:20:53.579Z,100062.00
2022-12-28T21:23:20.256Z,100035.44
2022-12-28T21:25:47.036Z,100033.66
2022-12-28T21:28:13.557Z,100041.63
2022-12-28T21:30:40.064Z,100021.28
2022-12-28T21:33:06.760Z,99969.06
2022-12-28T21:35:34.590Z,100019.50
2022-12-28T21:38:04.432Z,100038.97
2022-12-28T21:40:31.019Z,100000.91
2022-12-28T21:42:57.519Z,99989.41
2022-12-28T21:45:24.180Z,99943.38
2022-12-28T21:47:50.687Z,99999.13
2022-12-28T21:50:17.386Z,100001.78
2022-12-28T21:52:44.017Z,99915.06
2022-12-28T21:55:29.469Z,100007.94
2022-12-28T21:57:56.023Z,99989.38
2022-12-28T22:00:41.278Z,100007.06
2022-12-28T22:03:26.753Z,99986.72
2022-12-28T22:06:04.958Z,99979.66
2022-12-28T22:08:50.795Z,99970.78
2022-12-28T22:11:37.084Z,99976.13
2022-12-28T22:14:05.003Z,99982.31
2022-12-28T22:16:35.575Z,99930.09
2022-12-28T22:19:04.169Z,99925.66
2022-12-28T22:21:31.662Z,99913.28
2022-12-28T22:23:58.523Z,99952.19
2022-12-28T22:26:26.087Z,99953.94
2022-12-28T22:28:52.640Z,99958.41
2022-12-28T22:31:20.087Z,99954.84
2022-12-28T22:33:46.698Z,99943.34
2022-12-28T22:36:16.843Z,99893.81
2022-12-28T22:38:43.533Z,99887.63
2022-12-28T22:41:10.779Z,99902.63
2022-12-28T22:43:37.446Z,99834.56
2022-12-28T22:46:10.120Z,99970.69
2022-12-28T22:48:37.355Z,99965.34
2022-12-28T22:51:09.548Z,99966.22
2022-12-28T22:53:36.615Z,99958.25
2022-12-28T22:56:05.759Z,99944.09
2022-12-28T22:58:33.377Z,99967.13
2022-12-28T23:01:12.275Z,99908.72
2022-12-28T23:03:40.765Z,99921.13
2022-12-28T23:06:09.235Z,99951.19
2022-12-28T23:08:37.267Z,99957.44
2022-12-28T23:11:45.953Z,99937.03
2022-12-28T23:14:42.525Z,99890.16
2022-12-28T23:17:12.321Z,99931.66
2022-12-28T23:19:57.698Z,99931.69
2022-12-28T23:22:46.042Z,99935.22
2022-12-28T23:25:34.126Z,99943.19
2022-12-28T23:28:02.253Z,99878.63
2022-12-28T23:30:29.411Z,99860.09
2022-12-28T23:32:57.044Z,99871.56
2022-12-28T23:35:25.092Z,99892.78
2022-12-28T23:37:52.672Z,99913.13
2022-12-28T23:40:20.889Z,99855.66
2022-12-28T23:42:47.579Z,99844.16
2022-12-28T23:45:16.787Z,99892.72
2022-12-28T23:47:44.386Z,99905.97
2022-12-28T23:50:12.289Z,99822.03
2022-12-28T23:52:39.269Z,99883.84
2022-12-28T23:55:06.434Z,99891.78
2022-12-28T23:57:32.931Z,99851.09
2022-12-28T23:59:59.497Z,99812.19
